Aérodrome :
LOGIN :

S'inscrire | Disclaimer

   EN    FR    IT 

 










Légende :    VFR   VFR Marginal   IFR   IFR Intensif   IFR Très Intensif
Visi : 
Plafond : 
>= 8 km
>= 3000ft
5 à 8 km
1000 à 3000 ft
1500m à 5 km
500 à 1000 ft
800 à 1500m
200 à 500 ft
< 800m
< 200 ft
Symboles :   Orages  Brouillard  Fortes neiges  Fortes précipitations  Vent > 20 kt
SIGMETs :   Divers  Orages  Givrage  Turbulence  Onde Orograph.  Cendres Volcan.







- Altitude de l'aérodrome : 622 ft
- Code IATA : BRS
- Voir les cartes d'approche


EGGD - Bristol Int.

DERNIER METAR :
  • 261950Z AUTO 07018KT 9999 OVC009 16/13 Q1027

METARs EXPIRÉS :
  • 261920Z AUTO 06019KT 9999 OVC011 16/14 Q1027
  • 261850Z AUTO 05018KT 9999 BKN012 17/14 Q1027
  • 261820Z AUTO 06016G26KT 9999 OVC014 18/14 Q1027
  • 261750Z AUTO 06019KT 9999 SCT014 18/14 Q1026

TAF TAF EGGD
Valide du 26 à 18h jusqu'au 27 à 18h UTC


261704Z 2618/2718 06015KT 9999 SCT015
BECMG 2618/2621 BKN009
TEMPO 2618/2718 05020G30KT
TEMPO 2700/2709 BKN010
BECMG 2710/2713 CAVOK
ATIS : +44 1275 473 666
Pas de NOTAMs connus pour ce terrain.



MET'MAP, la Météo Aéronautique d'un coup d'oeil ! - Copyright ORBIFLY Décembre 2007 - Disclaimer

ORBIFLY MET'MAP TEAM :

Programmation & Développement : Alexandra Zaïnal
Conception & Développement : Baudouin d'Aumeries
Co-Programmation & Développement : Marc-Olivier Méhu
Soutien technique & logistique : Manuel Goepfert

Contact : metmap@orbifly.com




SOURCES & CREDITS :

   NOAA